IBE04VL LEVX-LEMD
Flight info
| Callsign | IBE04VL |
|---|---|
| Flight time | 0h 48m |
| Altitude | 29000 |
| Route | BEDAL DCT GODIV DCT ZMR |
| Aircraft | A320/M-SDE3FGHIRWY/LB1 |
Departure
| Time | 2026-04-18 10:55 |
|---|---|
| Airport | Vigo Airport (LEVX) |
Arrival
| Time | 2026-04-18 11:43 |
|---|---|
| Airport | Adolfo Suárez Madrid–Barajas Airport (LEMD) |
| Time | Latitude | Longitude | Altitude | Speed | Heading |
|---|---|---|---|---|---|
| 2026-04-18 10:28 | 42.22511 | -8.63184 | 843 ft | 0 kts | 282° |
| 2026-04-18 10:35 | 42.22511 | -8.63183 | 843 ft | 0 kts | 282° |
| 2026-04-18 10:45 | 42.22509 | -8.63170 | 831 ft | 4 kts | 282° |
| 2026-04-18 10:46 | 42.22504 | -8.63135 | 832 ft | 4 kts | 282° |
| 2026-04-18 10:46 | 42.22501 | -8.63102 | 837 ft | 4 kts | 250° |
| 2026-04-18 10:46 | 42.22516 | -8.63078 | 835 ft | 4 kts | 199° |
| 2026-04-18 10:46 | 42.22530 | -8.63073 | 839 ft | 0 kts | 192° |
| 2026-04-18 10:51 | 42.22513 | -8.63078 | 840 ft | 6 kts | 192° |
| 2026-04-18 10:51 | 42.22435 | -8.63100 | 843 ft | 16 kts | 192° |
| 2026-04-18 10:51 | 42.22307 | -8.63134 | 837 ft | 20 kts | 191° |
| 2026-04-18 10:51 | 42.22197 | -8.63164 | 841 ft | 5 kts | 191° |
| 2026-04-18 10:52 | 42.22196 | -8.63164 | 841 ft | 0 kts | 191° |
| 2026-04-18 10:52 | 42.22195 | -8.63164 | 841 ft | 0 kts | 191° |
| 2026-04-18 10:52 | 42.22189 | -8.63166 | 839 ft | 3 kts | 191° |
| 2026-04-18 10:53 | 42.22143 | -8.63171 | 840 ft | 11 kts | 167° |
| 2026-04-18 10:53 | 42.22113 | -8.63058 | 836 ft | 17 kts | 73° |
| 2026-04-18 10:53 | 42.22161 | -8.62962 | 842 ft | 7 kts | 44° |
| 2026-04-18 10:53 | 42.22187 | -8.62949 | 835 ft | 0 kts | 14° |
| 2026-04-18 10:54 | 42.22430 | -8.62883 | 840 ft | 77 kts | 11° |
| 2026-04-18 10:54 | 42.23177 | -8.62681 | 836 ft | 140 kts | 11° |
| 2026-04-18 10:54 | 42.24291 | -8.62375 | 984 ft | 178 kts | 12° |
| 2026-04-18 10:55 | 42.25505 | -8.62024 | 1772 ft | 176 kts | 12° |
| 2026-04-18 10:55 | 42.26715 | -8.61666 | 2446 ft | 187 kts | 13° |
| 2026-04-18 10:55 | 42.28087 | -8.61263 | 2755 ft | 215 kts | 13° |
| 2026-04-18 10:55 | 42.29580 | -8.60836 | 3478 ft | 225 kts | 13° |
| 2026-04-18 10:56 | 42.31143 | -8.60395 | 4218 ft | 233 kts | 12° |
| 2026-04-18 10:56 | 42.32724 | -8.59832 | 4984 ft | 242 kts | 26° |
| 2026-04-18 10:56 | 42.33986 | -8.58244 | 5382 ft | 262 kts | 65° |
| 2026-04-18 10:56 | 42.34327 | -8.55801 | 5935 ft | 273 kts | 101° |
| 2026-04-18 10:57 | 42.33547 | -8.53499 | 6738 ft | 274 kts | 136° |
| 2026-04-18 10:57 | 42.31993 | -8.52052 | 7615 ft | 274 kts | 158° |
| 2026-04-18 10:57 | 42.30259 | -8.50964 | 8520 ft | 279 kts | 148° |
| 2026-04-18 10:57 | 42.28950 | -8.48989 | 9399 ft | 289 kts | 123° |
| 2026-04-18 10:58 | 42.28124 | -8.46483 | 10290 ft | 295 kts | 112° |
| 2026-04-18 10:58 | 42.27500 | -8.43735 | 10694 ft | 318 kts | 108° |
| 2026-04-18 10:58 | 42.26919 | -8.40776 | 10977 ft | 342 kts | 107° |
| 2026-04-18 10:58 | 42.26286 | -8.37599 | 11451 ft | 356 kts | 108° |
| 2026-04-18 10:59 | 42.25589 | -8.34363 | 12150 ft | 361 kts | 109° |
| 2026-04-18 10:59 | 42.24830 | -8.31109 | 12886 ft | 366 kts | 110° |
| 2026-04-18 10:59 | 42.24019 | -8.27834 | 13623 ft | 370 kts | 111° |
| 2026-04-18 10:59 | 42.23173 | -8.24531 | 14329 ft | 374 kts | 111° |
| 2026-04-18 11:00 | 42.22306 | -8.21204 | 14990 ft | 378 kts | 112° |
| 2026-04-18 11:00 | 42.21428 | -8.17836 | 15633 ft | 383 kts | 112° |
| 2026-04-18 11:00 | 42.20545 | -8.14426 | 16284 ft | 387 kts | 112° |
| 2026-04-18 11:00 | 42.19658 | -8.10981 | 16936 ft | 391 kts | 112° |
| 2026-04-18 11:01 | 42.18764 | -8.07495 | 17559 ft | 395 kts | 112° |
| 2026-04-18 11:01 | 42.18166 | -8.05168 | 17962 ft | 398 kts | 112° |
| 2026-04-18 11:01 | 42.17254 | -8.01620 | 18555 ft | 402 kts | 112° |
| 2026-04-18 11:02 | 42.15402 | -7.94427 | 19581 ft | 410 kts | 112° |
| 2026-04-18 11:02 | 42.14463 | -7.90785 | 20105 ft | 413 kts | 112° |
| 2026-04-18 11:02 | 42.13512 | -7.87111 | 20626 ft | 417 kts | 111° |
| 2026-04-18 11:02 | 42.12549 | -7.83406 | 21160 ft | 420 kts | 111° |
| 2026-04-18 11:03 | 42.11579 | -7.79681 | 21665 ft | 423 kts | 111° |
| 2026-04-18 11:03 | 42.10598 | -7.75919 | 22161 ft | 427 kts | 111° |
| 2026-04-18 11:03 | 42.09612 | -7.72135 | 22645 ft | 430 kts | 111° |
| 2026-04-18 11:03 | 42.08619 | -7.68322 | 23118 ft | 434 kts | 111° |
| 2026-04-18 11:04 | 42.07615 | -7.64475 | 23599 ft | 437 kts | 111° |
| 2026-04-18 11:04 | 42.06603 | -7.60601 | 24015 ft | 440 kts | 111° |
| 2026-04-18 11:04 | 42.05583 | -7.56697 | 24412 ft | 443 kts | 111° |
| 2026-04-18 11:04 | 42.04556 | -7.52770 | 24805 ft | 446 kts | 111° |
| 2026-04-18 11:05 | 42.03531 | -7.48866 | 25184 ft | 449 kts | 111° |
| 2026-04-18 11:05 | 42.02483 | -7.44890 | 25540 ft | 452 kts | 111° |
| 2026-04-18 11:05 | 42.01415 | -7.40847 | 25918 ft | 454 kts | 111° |
| 2026-04-18 11:05 | 42.00352 | -7.36831 | 26318 ft | 457 kts | 111° |
| 2026-04-18 11:06 | 41.99296 | -7.32850 | 26689 ft | 459 kts | 111° |
| 2026-04-18 11:06 | 41.98220 | -7.28798 | 27056 ft | 462 kts | 111° |
| 2026-04-18 11:06 | 41.97138 | -7.24720 | 27425 ft | 464 kts | 111° |
| 2026-04-18 11:06 | 41.96049 | -7.20619 | 27793 ft | 466 kts | 111° |
| 2026-04-18 11:07 | 41.94952 | -7.16489 | 28140 ft | 469 kts | 111° |
| 2026-04-18 11:07 | 41.93852 | -7.12357 | 28473 ft | 471 kts | 111° |
| 2026-04-18 11:07 | 41.92743 | -7.08203 | 28791 ft | 474 kts | 111° |
| 2026-04-18 11:07 | 41.91627 | -7.04030 | 29122 ft | 476 kts | 111° |
| 2026-04-18 11:08 | 41.90499 | -6.99835 | 29438 ft | 478 kts | 111° |
| 2026-04-18 11:08 | 41.89366 | -6.95630 | 29741 ft | 481 kts | 111° |
| 2026-04-18 11:08 | 41.88227 | -6.91396 | 30029 ft | 483 kts | 111° |
| 2026-04-18 11:08 | 41.87088 | -6.87159 | 30138 ft | 479 kts | 111° |
| 2026-04-18 11:09 | 41.84846 | -6.78838 | 30143 ft | 473 kts | 111° |
| 2026-04-18 11:09 | 41.82600 | -6.70556 | 30144 ft | 472 kts | 111° |
| 2026-04-18 11:10 | 41.80341 | -6.62275 | 30146 ft | 473 kts | 112° |
| 2026-04-18 11:10 | 41.78085 | -6.54017 | 30154 ft | 471 kts | 111° |
| 2026-04-18 11:11 | 41.75830 | -6.45774 | 30145 ft | 471 kts | 111° |
| 2026-04-18 11:11 | 41.73566 | -6.37544 | 30146 ft | 471 kts | 111° |
| 2026-04-18 11:12 | 41.71289 | -6.29321 | 30144 ft | 471 kts | 111° |
| 2026-04-18 11:12 | 41.69018 | -6.21103 | 30159 ft | 471 kts | 111° |
| 2026-04-18 11:13 | 41.66748 | -6.12890 | 30152 ft | 471 kts | 111° |
| 2026-04-18 11:13 | 41.64464 | -6.04681 | 30156 ft | 471 kts | 111° |
| 2026-04-18 11:14 | 41.62170 | -5.96479 | 30161 ft | 471 kts | 111° |
| 2026-04-18 11:14 | 41.59871 | -5.88274 | 30157 ft | 471 kts | 111° |
| 2026-04-18 11:15 | 41.57580 | -5.80096 | 30160 ft | 470 kts | 111° |
| 2026-04-18 11:15 | 41.55274 | -5.71914 | 30170 ft | 470 kts | 112° |
| 2026-04-18 11:16 | 41.52376 | -5.64143 | 30172 ft | 467 kts | 127° |
| 2026-04-18 11:16 | 41.48041 | -5.57870 | 30178 ft | 462 kts | 140° |
| 2026-04-18 11:17 | 41.43262 | -5.52038 | 30173 ft | 463 kts | 140° |
| 2026-04-18 11:17 | 41.38520 | -5.46240 | 30171 ft | 463 kts | 140° |
| 2026-04-18 11:18 | 41.33769 | -5.40455 | 30170 ft | 463 kts | 140° |
| 2026-04-18 11:18 | 41.29047 | -5.34717 | 30164 ft | 463 kts | 140° |
| 2026-04-18 11:19 | 41.24296 | -5.28953 | 30167 ft | 462 kts | 140° |
| 2026-04-18 11:19 | 41.19549 | -5.23205 | 30160 ft | 461 kts | 140° |
| 2026-04-18 11:20 | 41.14806 | -5.17469 | 30163 ft | 461 kts | 140° |
| 2026-04-18 11:20 | 41.10059 | -5.11744 | 30163 ft | 461 kts | 140° |
| 2026-04-18 11:21 | 41.05314 | -5.06034 | 30157 ft | 461 kts | 140° |
| 2026-04-18 11:21 | 41.00568 | -5.00334 | 30148 ft | 460 kts | 140° |
| 2026-04-18 11:22 | 40.95821 | -4.94646 | 30153 ft | 460 kts | 140° |
| 2026-04-18 11:22 | 40.91072 | -4.88964 | 30151 ft | 461 kts | 140° |
| 2026-04-18 11:23 | 40.86243 | -4.83203 | 30176 ft | 471 kts | 140° |
| 2026-04-18 11:23 | 40.81399 | -4.77441 | 29807 ft | 469 kts | 140° |
| 2026-04-18 11:24 | 40.78989 | -4.74578 | 27966 ft | 468 kts | 140° |
| 2026-04-18 11:24 | 40.76550 | -4.71687 | 26129 ft | 473 kts | 140° |
| 2026-04-18 11:24 | 40.74127 | -4.68812 | 24803 ft | 464 kts | 140° |
| 2026-04-18 11:24 | 40.71752 | -4.65988 | 23854 ft | 452 kts | 140° |
| 2026-04-18 11:25 | 40.69429 | -4.63230 | 23131 ft | 447 kts | 140° |
| 2026-04-18 11:25 | 40.67143 | -4.60518 | 22464 ft | 440 kts | 140° |
| 2026-04-18 11:25 | 40.64873 | -4.57831 | 21813 ft | 435 kts | 140° |
| 2026-04-18 11:25 | 40.62642 | -4.55175 | 21202 ft | 430 kts | 137° |
| 2026-04-18 11:26 | 40.60614 | -4.52325 | 20697 ft | 423 kts | 134° |
| 2026-04-18 11:26 | 40.58647 | -4.49481 | 20217 ft | 417 kts | 134° |
| 2026-04-18 11:26 | 40.56707 | -4.46685 | 19738 ft | 412 kts | 134° |
| 2026-04-18 11:26 | 40.54774 | -4.43910 | 19262 ft | 409 kts | 134° |
| 2026-04-18 11:27 | 40.52858 | -4.41165 | 18788 ft | 406 kts | 134° |
| 2026-04-18 11:27 | 40.50953 | -4.38439 | 18298 ft | 403 kts | 134° |
| 2026-04-18 11:27 | 40.49062 | -4.35733 | 17812 ft | 401 kts | 134° |
| 2026-04-18 11:27 | 40.47185 | -4.33050 | 17336 ft | 397 kts | 134° |
| 2026-04-18 11:28 | 40.45324 | -4.30389 | 16886 ft | 394 kts | 134° |
| 2026-04-18 11:28 | 40.43476 | -4.27742 | 16420 ft | 391 kts | 135° |
| 2026-04-18 11:28 | 40.41643 | -4.25122 | 15977 ft | 388 kts | 134° |
| 2026-04-18 11:28 | 40.39824 | -4.22526 | 15525 ft | 385 kts | 134° |
| 2026-04-18 11:29 | 40.38039 | -4.19980 | 15084 ft | 382 kts | 133° |
| 2026-04-18 11:29 | 40.36226 | -4.17392 | 14636 ft | 379 kts | 133° |
| 2026-04-18 11:29 | 40.34676 | -4.14665 | 14202 ft | 377 kts | 122° |
| 2026-04-18 11:29 | 40.33530 | -4.11584 | 13556 ft | 378 kts | 111° |
| 2026-04-18 11:30 | 40.32714 | -4.08304 | 12879 ft | 377 kts | 108° |
| 2026-04-18 11:30 | 40.31903 | -4.05011 | 12081 ft | 380 kts | 108° |
| 2026-04-18 11:30 | 40.31087 | -4.01738 | 11439 ft | 378 kts | 109° |
| 2026-04-18 11:30 | 40.30267 | -3.98478 | 10798 ft | 375 kts | 109° |
| 2026-04-18 11:31 | 40.29465 | -3.95306 | 10604 ft | 354 kts | 109° |
| 2026-04-18 11:31 | 40.28720 | -3.92362 | 10482 ft | 328 kts | 109° |
| 2026-04-18 11:31 | 40.28028 | -3.89618 | 10342 ft | 306 kts | 109° |
| 2026-04-18 11:31 | 40.27371 | -3.87012 | 9945 ft | 297 kts | 109° |
| 2026-04-18 11:32 | 40.26730 | -3.84476 | 9775 ft | 293 kts | 109° |
| 2026-04-18 11:32 | 40.26087 | -3.81942 | 9657 ft | 293 kts | 109° |
| 2026-04-18 11:32 | 40.25444 | -3.79417 | 9526 ft | 293 kts | 109° |
| 2026-04-18 11:32 | 40.24803 | -3.76899 | 9393 ft | 291 kts | 109° |
| 2026-04-18 11:33 | 40.24164 | -3.74385 | 9192 ft | 290 kts | 110° |
| 2026-04-18 11:33 | 40.23528 | -3.71885 | 8872 ft | 288 kts | 109° |
| 2026-04-18 11:33 | 40.22896 | -3.69404 | 8538 ft | 287 kts | 109° |
| 2026-04-18 11:33 | 40.22267 | -3.66933 | 8205 ft | 285 kts | 110° |
| 2026-04-18 11:34 | 40.21641 | -3.64478 | 7878 ft | 284 kts | 109° |
| 2026-04-18 11:34 | 40.21019 | -3.62035 | 7548 ft | 283 kts | 109° |
| 2026-04-18 11:34 | 40.20399 | -3.59594 | 7222 ft | 282 kts | 109° |
| 2026-04-18 11:34 | 40.19781 | -3.57172 | 6893 ft | 280 kts | 110° |
| 2026-04-18 11:35 | 40.19163 | -3.54757 | 6560 ft | 280 kts | 110° |
| 2026-04-18 11:35 | 40.18547 | -3.52347 | 6230 ft | 278 kts | 110° |
| 2026-04-18 11:35 | 40.17949 | -3.50004 | 6096 ft | 265 kts | 109° |
| 2026-04-18 11:35 | 40.17669 | -3.47665 | 5875 ft | 259 kts | 87° |
| 2026-04-18 11:36 | 40.18085 | -3.45414 | 5941 ft | 261 kts | 68° |
| 2026-04-18 11:36 | 40.19131 | -3.43458 | 5522 ft | 264 kts | 43° |
| 2026-04-18 11:36 | 40.20504 | -3.41871 | 5129 ft | 263 kts | 40° |
| 2026-04-18 11:36 | 40.22031 | -3.40586 | 4826 ft | 259 kts | 29° |
| 2026-04-18 11:37 | 40.23622 | -3.39441 | 4406 ft | 261 kts | 27° |
| 2026-04-18 11:37 | 40.25315 | -3.38647 | 4193 ft | 256 kts | 10° |
| 2026-04-18 11:37 | 40.27063 | -3.38554 | 4083 ft | 247 kts | 352° |
| 2026-04-18 11:37 | 40.28726 | -3.38835 | 3994 ft | 236 kts | 352° |
| 2026-04-18 11:38 | 40.30267 | -3.39324 | 3980 ft | 221 kts | 332° |
| 2026-04-18 11:38 | 40.31497 | -3.40405 | 4013 ft | 206 kts | 320° |
| 2026-04-18 11:38 | 40.32597 | -3.41516 | 4022 ft | 200 kts | 320° |
| 2026-04-18 11:38 | 40.33666 | -3.42594 | 3986 ft | 184 kts | 321° |
| 2026-04-18 11:39 | 40.34617 | -3.43553 | 4006 ft | 165 kts | 321° |
| 2026-04-18 11:39 | 40.35504 | -3.44450 | 4000 ft | 158 kts | 321° |
| 2026-04-18 11:39 | 40.36373 | -3.45328 | 4008 ft | 158 kts | 320° |
| 2026-04-18 11:39 | 40.37239 | -3.46205 | 4008 ft | 157 kts | 321° |
| 2026-04-18 11:40 | 40.38103 | -3.47078 | 3911 ft | 157 kts | 321° |
| 2026-04-18 11:40 | 40.38965 | -3.47950 | 3744 ft | 157 kts | 320° |
| 2026-04-18 11:40 | 40.39830 | -3.48825 | 3559 ft | 156 kts | 321° |
| 2026-04-18 11:40 | 40.40685 | -3.49690 | 3365 ft | 154 kts | 321° |
| 2026-04-18 11:41 | 40.41536 | -3.50551 | 3168 ft | 155 kts | 321° |
| 2026-04-18 11:41 | 40.42388 | -3.51414 | 2953 ft | 153 kts | 322° |
| 2026-04-18 11:41 | 40.43226 | -3.52263 | 2758 ft | 152 kts | 322° |
| 2026-04-18 11:41 | 40.44063 | -3.53113 | 2539 ft | 153 kts | 322° |
| 2026-04-18 11:42 | 40.44899 | -3.53954 | 2318 ft | 154 kts | 322° |
| 2026-04-18 11:42 | 40.45738 | -3.54805 | 2117 ft | 152 kts | 323° |
| 2026-04-18 11:42 | 40.46579 | -3.55656 | 1961 ft | 151 kts | 322° |
| 2026-04-18 11:42 | 40.47300 | -3.56391 | 1985 ft | 107 kts | 322° |
| 2026-04-18 11:43 | 40.47718 | -3.56815 | 1995 ft | 40 kts | 322° |
| 2026-04-18 11:43 | 40.47776 | -3.56968 | 1998 ft | 6 kts | 291° |
| 2026-04-18 11:43 | 40.47788 | -3.57006 | 1996 ft | 3 kts | 293° |
| 2026-04-18 11:43 | 40.47794 | -3.57023 | 1999 ft | 1 kts | 293° |
| 2026-04-18 11:44 | 40.47794 | -3.57026 | 1999 ft | 0 kts | 293° |
| 2026-04-18 11:44 | 40.47795 | -3.57027 | 1999 ft | 1 kts | 293° |
| 2026-04-18 11:44 | 40.47801 | -3.57051 | 1999 ft | 5 kts | 284° |
| 2026-04-18 11:44 | 40.47760 | -3.57115 | 1999 ft | 15 kts | 175° |
| 2026-04-18 11:45 | 40.47665 | -3.57056 | 1997 ft | 14 kts | 179° |
| 2026-04-18 11:45 | 40.47655 | -3.57141 | 1997 ft | 11 kts | 318° |
| 2026-04-18 11:45 | 40.47709 | -3.57196 | 1999 ft | 10 kts | 322° |
| 2026-04-18 11:45 | 40.47775 | -3.57264 | 2001 ft | 14 kts | 322° |
| 2026-04-18 11:46 | 40.47840 | -3.57331 | 2004 ft | 10 kts | 322° |
| 2026-04-18 11:46 | 40.47904 | -3.57395 | 2004 ft | 15 kts | 322° |
| 2026-04-18 11:46 | 40.48003 | -3.57495 | 2002 ft | 20 kts | 322° |
| 2026-04-18 11:46 | 40.48121 | -3.57615 | 1999 ft | 23 kts | 322° |
| 2026-04-18 11:47 | 40.48260 | -3.57759 | 1994 ft | 27 kts | 321° |
| 2026-04-18 11:47 | 40.48418 | -3.57904 | 1992 ft | 23 kts | 328° |
| 2026-04-18 11:47 | 40.48479 | -3.57954 | 1995 ft | 6 kts | 328° |
| 2026-04-18 11:47 | 40.48511 | -3.58026 | 2001 ft | 14 kts | 276° |
| 2026-04-18 11:48 | 40.48512 | -3.58188 | 2008 ft | 18 kts | 269° |
| 2026-04-18 11:48 | 40.48511 | -3.58382 | 2015 ft | 22 kts | 270° |
| 2026-04-18 11:48 | 40.48510 | -3.58580 | 2028 ft | 21 kts | 270° |
| 2026-04-18 11:48 | 40.48510 | -3.58777 | 2025 ft | 23 kts | 270° |
| 2026-04-18 11:49 | 40.48508 | -3.58992 | 2022 ft | 25 kts | 269° |
| 2026-04-18 11:49 | 40.48507 | -3.59152 | 2026 ft | 5 kts | 269° |
| 2026-04-18 11:49 | 40.48507 | -3.59154 | 2025 ft | 0 kts | 269° |
| 2026-04-18 11:50 | 40.48507 | -3.59168 | 2031 ft | 8 kts | 270° |
| 2026-04-18 11:50 | 40.48536 | -3.59261 | 2025 ft | 11 kts | 346° |
| 2026-04-18 11:51 | 40.48606 | -3.59263 | 2022 ft | 9 kts | 360° |
| 2026-04-18 11:51 | 40.48666 | -3.59263 | 2022 ft | 8 kts | 360° |
| 2026-04-18 11:51 | 40.48718 | -3.59263 | 2026 ft | 8 kts | 359° |
| 2026-04-18 11:51 | 40.48779 | -3.59264 | 2022 ft | 8 kts | 359° |
| 2026-04-18 11:52 | 40.48832 | -3.59263 | 2022 ft | 7 kts | 10° |
| 2026-04-18 11:52 | 40.48835 | -3.59247 | 2032 ft | 1 kts | 94° |
| 2026-04-18 11:52 | 40.48834 | -3.59213 | 2029 ft | 5 kts | 91° |
| 2026-04-18 11:52 | 40.48834 | -3.59179 | 2027 ft | 3 kts | 89° |
| 2026-04-18 11:53 | 40.48834 | -3.59167 | 2026 ft | 0 kts | 89° |